Asaph, Pennsylvania
Current Conditions -  °F | °C
As of 12:55 PM on Thursday 23 Oct 2014 (Local Time) from KN38 Reporting Station
Overcast Overcast  
Wind Chill: 50°   Ceiling: 2200
Heat Index: 50°   Visibility: 10mi
Dew Point: 43°   Wind: 22mph
Humidity: 76%   Direction: 360°N
Pressure: 29.95"   Gusts: 32mph
Location:  41.7308°N, 77.349°W
Report Text: KN38 231655Z AUTO 36019G28KT 10SM BKN022 OVC028 10/06 A2995 RMK AO2
Loading
Personal Weather Stations






























Interactive Weather Map
Tropical Storm Tracking
New forecast layout! Learn more

10-Day Weather Forecast

Advertisements
Track Severe Weather on mobile